Hakozaki Maru — JJ3662 — position and weather

sailwx.info

Track history (hours):
 
Tides and Currents Weather Stations Pressure Air Temp Water Temp Dewpoint Dewpoint Depression Visibility Wind Speed Wind Dir Waves Ship Positions

Hakozaki Maru

Last reported at 2014-Sep-22 05:33 UTC. Time now 2014-Sep-23 08:22 UTC.
Position N 34°41' E 135°12'.

Length 31 m; draft 2.5 m.

Type: Tug. MMSI: 431000322.

Date/timePositionNaut miles runAvg speedWind from/ knotsBaromVisibWave heightAir tempDewpointWater temp
2014-Sep-22 05:33N 34°41' E 135°12'0 0.0
2014-Sep-22 04:33N 34°41' E 135°12'0 0.0
2014-Sep-22 03:33N 34°41' E 135°12'0 0.0
2014-Sep-22 02:33N 34°41' E 135°12'0 0.0
2014-Sep-22 01:33N 34°41' E 135°12'0 0.0
2014-Sep-22 00:33N 34°41' E 135°12'4 3.6
2014-Sep-21 23:33N 34°42' E 135°17'1 1.4
2014-Sep-21 22:33N 34°41' E 135°18'4 4.5
2014-Sep-21 21:33N 34°41' E 135°13'0 0.0
2014-Sep-20 06:06N 34°41' E 135°12'5 8.3
2014-Sep-20 05:33N 34°42' E 135°18'1 0.8
2014-Sep-20 04:33N 34°42' E 135°17'1 0.5
2014-Sep-20 03:33N 34°42' E 135°17'4 3.5
2014-Sep-20 02:33N 34°41' E 135°13'1 0.7
2014-Sep-20 01:33N 34°41' E 135°12'0 0.0
2014-Sep-20 00:33N 34°41' E 135°12'0 0.0
2014-Sep-19 23:33N 34°41' E 135°12'2 1.5
2014-Sep-19 22:33N 34°40' E 135°14'1 1.1
2014-Sep-19 21:33N 34°41' E 135°13'2 0.0
2014-Sep-18 09:07N 34°40' E 135°14'1 2.4
2014-Sep-18 08:33N 34°39' E 135°15'3 3.3
2014-Sep-18 07:33N 34°41' E 135°12'0 0.0
2014-Sep-18 06:33N 34°41' E 135°12'0 0.0
2014-Sep-18 05:33N 34°41' E 135°12'0 0.0
2014-Sep-18 04:33N 34°41' E 135°12'0 0.0
2014-Sep-18 03:32N 34°41' E 135°12'0 0.0
2014-Sep-18 02:33N 34°41' E 135°12'0 0.0
2014-Sep-18 01:33N 34°41' E 135°12'  
2014-Sep-12 08:33N 34°41' E 135°15'2 1.5
2014-Sep-12 07:33N 34°39' E 135°16'2 1.9
2014-Sep-12 06:33N 34°41' E 135°17'0 0.0
2014-Sep-12 05:33N 34°41' E 135°17'  
Track history (hours):
 
Tides and Currents Weather Stations Pressure Air Temp Water Temp Dewpoint Dewpoint Depression Visibility Wind Speed Wind Dir Waves Ship Positions

Hakozaki Maru

Last reported at 2014-Sep-22 05:33 UTC. Time now 2014-Sep-23 08:22 UTC.
Position N 34°41' E 135°12'.

Length 31 m; draft 2.5 m.

Type: Tug. MMSI: 431000322.

Date/timePositionNaut miles runAvg speedWind from/ knotsBaromVisibWave heightAir tempDewpointWater temp
2014-Sep-22 05:33N 34°41' E 135°12'0 0.0
2014-Sep-22 04:33N 34°41' E 135°12'0 0.0
2014-Sep-22 03:33N 34°41' E 135°12'0 0.0
2014-Sep-22 02:33N 34°41' E 135°12'0 0.0
2014-Sep-22 01:33N 34°41' E 135°12'0 0.0
2014-Sep-22 00:33N 34°41' E 135°12'4 3.6
2014-Sep-21 23:33N 34°42' E 135°17'1 1.4
2014-Sep-21 22:33N 34°41' E 135°18'4 4.5
2014-Sep-21 21:33N 34°41' E 135°13'0 0.0
2014-Sep-20 06:06N 34°41' E 135°12'5 8.3
2014-Sep-20 05:33N 34°42' E 135°18'1 0.8
2014-Sep-20 04:33N 34°42' E 135°17'1 0.5
2014-Sep-20 03:33N 34°42' E 135°17'4 3.5
2014-Sep-20 02:33N 34°41' E 135°13'1 0.7
2014-Sep-20 01:33N 34°41' E 135°12'0 0.0
2014-Sep-20 00:33N 34°41' E 135°12'0 0.0
2014-Sep-19 23:33N 34°41' E 135°12'2 1.5
2014-Sep-19 22:33N 34°40' E 135°14'1 1.1
2014-Sep-19 21:33N 34°41' E 135°13'2 0.0
2014-Sep-18 09:07N 34°40' E 135°14'1 2.4
2014-Sep-18 08:33N 34°39' E 135°15'3 3.3
2014-Sep-18 07:33N 34°41' E 135°12'0 0.0
2014-Sep-18 06:33N 34°41' E 135°12'0 0.0
2014-Sep-18 05:33N 34°41' E 135°12'0 0.0
2014-Sep-18 04:33N 34°41' E 135°12'0 0.0
2014-Sep-18 03:32N 34°41' E 135°12'0 0.0
2014-Sep-18 02:33N 34°41' E 135°12'0 0.0
2014-Sep-18 01:33N 34°41' E 135°12'  
2014-Sep-12 08:33N 34°41' E 135°15'2 1.5
2014-Sep-12 07:33N 34°39' E 135°16'2 1.9
2014-Sep-12 06:33N 34°41' E 135°17'0 0.0
2014-Sep-12 05:33N 34°41' E 135°17'  

Dump ship's entire track history